sensor_id;sensor_type;location;lat;lon;timestamp;temperature;humidity
71672;DHT22;67659;45.554;11.812;2023-08-24T18:17:55;34.30;72.80
71672;DHT22;67659;45.554;11.812;2023-08-24T18:20:21;34.20;73.00
71672;DHT22;67659;45.554;11.812;2023-08-24T18:22:47;34.20;75.10
71672;DHT22;67659;45.554;11.812;2023-08-24T18:25:12;34.00;75.80
71672;DHT22;67659;45.554;11.812;2023-08-24T18:27:38;34.10;74.70
71672;DHT22;67659;45.554;11.812;2023-08-24T18:30:05;33.70;76.10
71672;DHT22;67659;45.554;11.812;2023-08-24T18:32:31;33.60;77.80
71672;DHT22;67659;45.554;11.812;2023-08-24T18:34:57;33.60;78.10
71672;DHT22;67659;45.554;11.812;2023-08-24T18:37:24;33.40;75.60
71672;DHT22;67659;45.554;11.812;2023-08-24T18:39:50;33.30;76.60
71672;DHT22;67659;45.554;11.812;2023-08-24T18:42:16;33.20;77.40
71672;DHT22;67659;45.554;11.812;2023-08-24T18:44:41;33.30;79.10
71672;DHT22;67659;45.554;11.812;2023-08-24T18:47:07;33.10;78.70
71672;DHT22;67659;45.554;11.812;2023-08-24T18:49:33;33.00;78.40
71672;DHT22;67659;45.554;11.812;2023-08-24T18:52:00;33.00;78.80
71672;DHT22;67659;45.554;11.812;2023-08-24T18:54:26;33.00;79.10
71672;DHT22;67659;45.554;11.812;2023-08-24T18:56:52;32.60;80.60
71672;DHT22;67659;45.554;11.812;2023-08-24T18:59:18;32.60;79.60
71672;DHT22;67659;45.554;11.812;2023-08-24T19:01:46;32.70;80.50
71672;DHT22;67659;45.554;11.812;2023-08-24T19:04:12;32.70;78.90
71672;DHT22;67659;45.554;11.812;2023-08-24T19:06:38;32.80;78.30
71672;DHT22;67659;45.554;11.812;2023-08-24T19:09:04;32.80;80.40
71672;DHT22;67659;45.554;11.812;2023-08-24T19:11:30;32.80;81.30
71672;DHT22;67659;45.554;11.812;2023-08-24T19:13:56;32.80;81.30
71672;DHT22;67659;45.554;11.812;2023-08-24T19:16:22;32.70;82.10
71672;DHT22;67659;45.554;11.812;2023-08-24T19:18:48;32.60;84.10
71672;DHT22;67659;45.554;11.812;2023-08-24T19:21:14;32.30;81.80
71672;DHT22;67659;45.554;11.812;2023-08-24T19:23:40;32.20;82.10
71672;DHT22;67659;45.554;11.812;2023-08-24T19:26:06;32.00;82.70
71672;DHT22;67659;45.554;11.812;2023-08-24T19:28:32;32.00;83.50
71672;DHT22;67659;45.554;11.812;2023-08-24T19:30:58;31.90;85.70
71672;DHT22;67659;45.554;11.812;2023-08-24T19:33:25;31.80;84.40
71672;DHT22;67659;45.554;11.812;2023-08-24T19:35:51;31.70;85.70
71672;DHT22;67659;45.554;11.812;2023-08-24T19:38:17;31.70;85.10
71672;DHT22;67659;45.554;11.812;2023-08-24T19:40:43;31.70;85.20
71672;DHT22;67659;45.554;11.812;2023-08-24T19:43:09;31.60;85.70
71672;DHT22;67659;45.554;11.812;2023-08-24T19:45:37;31.50;86.20
71672;DHT22;67659;45.554;11.812;2023-08-24T19:48:04;31.40;86.80
71672;DHT22;67659;45.554;11.812;2023-08-24T19:50:31;31.50;88.50
71672;DHT22;67659;45.554;11.812;2023-08-24T19:52:58;31.30;87.70
71672;DHT22;67659;45.554;11.812;2023-08-24T19:55:27;31.10;88.30
71672;DHT22;67659;45.554;11.812;2023-08-24T19:57:53;31.20;87.50
71672;DHT22;67659;45.554;11.812;2023-08-24T20:00:20;31.20;89.00
71672;DHT22;67659;45.554;11.812;2023-08-24T20:02:48;31.00;88.40
71672;DHT22;67659;45.554;11.812;2023-08-24T20:05:14;31.00;88.70
71672;DHT22;67659;45.554;11.812;2023-08-24T20:07:40;30.90;88.90
71672;DHT22;67659;45.554;11.812;2023-08-24T20:10:13;30.90;87.60
71672;DHT22;67659;45.554;11.812;2023-08-24T20:12:40;30.70;90.20
71672;DHT22;67659;45.554;11.812;2023-08-24T20:15:07;30.50;88.50
71672;DHT22;67659;45.554;11.812;2023-08-24T20:17:44;30.50;90.00
71672;DHT22;67659;45.554;11.812;2023-08-24T20:20:11;30.50;90.00
71672;DHT22;67659;45.554;11.812;2023-08-24T20:22:43;30.60;90.10
71672;DHT22;67659;45.554;11.812;2023-08-24T20:25:10;30.40;91.90
71672;DHT22;67659;45.554;11.812;2023-08-24T20:27:36;30.40;90.40
71672;DHT22;67659;45.554;11.812;2023-08-24T20:30:04;30.30;92.70
71672;DHT22;67659;45.554;11.812;2023-08-24T20:32:30;30.20;93.00
71672;DHT22;67659;45.554;11.812;2023-08-24T20:34:57;30.30;92.70
71672;DHT22;67659;45.554;11.812;2023-08-24T20:37:23;30.20;92.40
71672;DHT22;67659;45.554;11.812;2023-08-24T20:39:50;30.30;93.00
71672;DHT22;67659;45.554;11.812;2023-08-24T20:42:18;30.30;91.80
71672;DHT22;67659;45.554;11.812;2023-08-24T20:44:51;30.20;92.00
71672;DHT22;67659;45.554;11.812;2023-08-24T20:47:18;30.10;94.30
71672;DHT22;67659;45.554;11.812;2023-08-24T20:49:45;30.00;93.90
71672;DHT22;67659;45.554;11.812;2023-08-24T20:52:18;30.00;93.50
71672;DHT22;67659;45.554;11.812;2023-08-24T20:54:45;30.00;93.00
71672;DHT22;67659;45.554;11.812;2023-08-24T20:57:14;29.80;94.10
71672;DHT22;67659;45.554;11.812;2023-08-24T20:59:40;29.80;95.40
71672;DHT22;67659;45.554;11.812;2023-08-24T21:02:08;29.80;93.90
71672;DHT22;67659;45.554;11.812;2023-08-24T21:04:33;29.80;93.60
71672;DHT22;67659;45.554;11.812;2023-08-24T21:07:03;29.70;93.80
71672;DHT22;67659;45.554;11.812;2023-08-24T21:09:29;29.70;95.40
71672;DHT22;67659;45.554;11.812;2023-08-24T21:11:55;29.70;95.20
71672;DHT22;67659;45.554;11.812;2023-08-24T21:14:21;29.70;94.30
71672;DHT22;67659;45.554;11.812;2023-08-24T21:16:47;29.70;96.50
71672;DHT22;67659;45.554;11.812;2023-08-24T21:19:13;29.60;96.90
71672;DHT22;67659;45.554;11.812;2023-08-24T21:21:39;29.50;97.30
71672;DHT22;67659;45.554;11.812;2023-08-24T21:24:05;29.50;97.40
71672;DHT22;67659;45.554;11.812;2023-08-24T21:26:31;29.40;99.10
71672;DHT22;67659;45.554;11.812;2023-08-24T21:28:57;29.50;98.70
71672;DHT22;67659;45.554;11.812;2023-08-24T21:31:24;29.40;99.30
71672;DHT22;67659;45.554;11.812;2023-08-24T21:33:50;29.60;99.80
71672;DHT22;67659;45.554;11.812;2023-08-24T21:36:16;29.50;99.90
71672;DHT22;67659;45.554;11.812;2023-08-24T21:38:42;29.50;99.60
71672;DHT22;67659;45.554;11.812;2023-08-24T21:41:09;29.60;98.90
71672;DHT22;67659;45.554;11.812;2023-08-24T21:43:35;29.60;98.50
71672;DHT22;67659;45.554;11.812;2023-08-24T21:46:03;29.50;98.70
71672;DHT22;67659;45.554;11.812;2023-08-24T21:48:29;29.50;99.10
71672;DHT22;67659;45.554;11.812;2023-08-24T21:50:59;29.50;99.40
71672;DHT22;67659;45.554;11.812;2023-08-24T21:53:26;29.40;99.80
71672;DHT22;67659;45.554;11.812;2023-08-24T21:55:54;29.30;99.40
71672;DHT22;67659;45.554;11.812;2023-08-24T21:58:20;29.20;99.10
71672;DHT22;67659;45.554;11.812;2023-08-24T22:00:46;29.20;98.30
71672;DHT22;67659;45.554;11.812;2023-08-24T22:03:12;29.10;97.60
71672;DHT22;67659;45.554;11.812;2023-08-24T22:05:38;29.10;98.90
71672;DHT22;67659;45.554;11.812;2023-08-24T22:08:05;29.10;99.00
71672;DHT22;67659;45.554;11.812;2023-08-24T22:10:33;29.00;99.90
71672;DHT22;67659;45.554;11.812;2023-08-24T22:12:59;28.70;99.90
71672;DHT22;67659;45.554;11.812;2023-08-24T22:15:25;28.60;99.90
71672;DHT22;67659;45.554;11.812;2023-08-24T22:17:51;28.60;99.90
71672;DHT22;67659;45.554;11.812;2023-08-24T22:20:17;28.60;99.90
71672;DHT22;67659;45.554;11.812;2023-08-24T22:22:44;28.70;99.90
71672;DHT22;67659;45.554;11.812;2023-08-24T22:25:10;28.80;99.90
71672;DHT22;67659;45.554;11.812;2023-08-24T22:27:36;28.80;99.90
71672;DHT22;67659;45.554;11.812;2023-08-24T22:30:02;28.80;99.90
71672;DHT22;67659;45.554;11.812;2023-08-24T22:32:31;28.80;99.90
71672;DHT22;67659;45.554;11.812;2023-08-24T22:34:57;28.80;99.90
71672;DHT22;67659;45.554;11.812;2023-08-24T22:37:22;28.80;99.90
71672;DHT22;67659;45.554;11.812;2023-08-24T22:39:48;28.80;99.90
71672;DHT22;67659;45.554;11.812;2023-08-24T22:42:17;28.80;99.90
71672;DHT22;67659;45.554;11.812;2023-08-24T22:44:43;28.80;99.90
71672;DHT22;67659;45.554;11.812;2023-08-24T22:47:09;28.70;99.90
71672;DHT22;67659;45.554;11.812;2023-08-24T22:49:37;28.50;99.90
71672;DHT22;67659;45.554;11.812;2023-08-24T22:52:03;28.40;99.90
71672;DHT22;67659;45.554;11.812;2023-08-24T22:54:29;28.50;99.90
71672;DHT22;67659;45.554;11.812;2023-08-24T22:56:55;28.50;99.90
71672;DHT22;67659;45.554;11.812;2023-08-24T22:59:21;28.60;99.90
71672;DHT22;67659;45.554;11.812;2023-08-24T23:01:46;28.70;99.90
71672;DHT22;67659;45.554;11.812;2023-08-24T23:04:12;28.70;99.90
71672;DHT22;67659;45.554;11.812;2023-08-24T23:06:46;28.70;99.90
71672;DHT22;67659;45.554;11.812;2023-08-24T23:09:15;28.70;99.90
71672;DHT22;67659;45.554;11.812;2023-08-24T23:11:43;28.80;99.90
71672;DHT22;67659;45.554;11.812;2023-08-24T23:14:09;28.60;99.90
71672;DHT22;67659;45.554;11.812;2023-08-24T23:16:35;28.60;99.90
71672;DHT22;67659;45.554;11.812;2023-08-24T23:19:01;28.70;99.90
71672;DHT22;67659;45.554;11.812;2023-08-24T23:21:27;28.60;99.90
71672;DHT22;67659;45.554;11.812;2023-08-24T23:23:53;28.50;99.90
71672;DHT22;67659;45.554;11.812;2023-08-24T23:26:19;28.50;99.90
71672;DHT22;67659;45.554;11.812;2023-08-24T23:28:45;28.50;99.90
71672;DHT22;67659;45.554;11.812;2023-08-24T23:31:11;28.50;99.90
71672;DHT22;67659;45.554;11.812;2023-08-24T23:33:37;28.60;99.90
71672;DHT22;67659;45.554;11.812;2023-08-24T23:36:03;28.70;99.60
71672;DHT22;67659;45.554;11.812;2023-08-24T23:38:28;28.80;98.80
71672;DHT22;67659;45.554;11.812;2023-08-24T23:40:58;28.70;98.50
71672;DHT22;67659;45.554;11.812;2023-08-24T23:43:24;28.70;99.90
71672;DHT22;67659;45.554;11.812;2023-08-24T23:45:50;28.80;99.90
71672;DHT22;67659;45.554;11.812;2023-08-24T23:48:16;28.70;99.90
71672;DHT22;67659;45.554;11.812;2023-08-24T23:50:42;28.70;99.90
71672;DHT22;67659;45.554;11.812;2023-08-24T23:53:08;28.60;99.90
71672;DHT22;67659;45.554;11.812;2023-08-24T23:55:37;28.60;99.90
71672;DHT22;67659;45.554;11.812;2023-08-24T23:58:04;28.60;99.90
